sensor_id;sensor_type;location;lat;lon;timestamp;pressure;altitude;pressure_sealevel;temperature
79488;BMP180;68949;53.176;18.088;2024-02-28T00:00:47;100290.20;;;
79488;BMP180;68949;53.176;18.088;2024-02-28T00:03:34;100291.20;;;
79488;BMP180;68949;53.176;18.088;2024-02-28T00:06:01;100291.40;;;
79488;BMP180;68949;53.176;18.088;2024-02-28T00:08:27;100293.00;;;
79488;BMP180;68949;53.176;18.088;2024-02-28T00:10:54;100291.20;;;
79488;BMP180;68949;53.176;18.088;2024-02-28T00:13:21;100289.40;;;
79488;BMP180;68949;53.176;18.088;2024-02-28T00:15:49;100290.60;;;
79488;BMP180;68949;53.176;18.088;2024-02-28T00:18:16;100287.80;;;
79488;BMP180;68949;53.176;18.088;2024-02-28T00:20:46;100283.80;;;
79488;BMP180;68949;53.176;18.088;2024-02-28T00:23:12;100283.60;;;
79488;BMP180;68949;53.176;18.088;2024-02-28T00:25:39;100284.60;;;
79488;BMP180;68949;53.176;18.088;2024-02-28T00:28:06;100280.80;;;
79488;BMP180;68949;53.176;18.088;2024-02-28T00:30:33;100283.80;;;
79488;BMP180;68949;53.176;18.088;2024-02-28T00:33:00;100282.20;;;
79488;BMP180;68949;53.176;18.088;2024-02-28T00:35:26;100287.60;;;
79488;BMP180;68949;53.176;18.088;2024-02-28T00:37:53;100288.20;;;
79488;BMP180;68949;53.176;18.088;2024-02-28T00:40:20;100294.80;;;
79488;BMP180;68949;53.176;18.088;2024-02-28T00:42:47;100302.20;;;
79488;BMP180;68949;53.176;18.088;2024-02-28T00:45:14;100305.60;;;
79488;BMP180;68949;53.176;18.088;2024-02-28T00:47:41;100304.00;;;
79488;BMP180;68949;53.176;18.088;2024-02-28T00:50:09;100306.00;;;
79488;BMP180;68949;53.176;18.088;2024-02-28T00:52:36;100303.20;;;
79488;BMP180;68949;53.176;18.088;2024-02-28T00:55:03;100297.80;;;
79488;BMP180;68949;53.176;18.088;2024-02-28T00:57:31;100296.20;;;
79488;BMP180;68949;53.176;18.088;2024-02-28T00:59:59;100292.60;;;
79488;BMP180;68949;53.176;18.088;2024-02-28T01:02:26;100294.40;;;
79488;BMP180;68949;53.176;18.088;2024-02-28T01:04:52;100296.00;;;
79488;BMP180;68949;53.176;18.088;2024-02-28T01:07:19;100293.60;;;
79488;BMP180;68949;53.176;18.088;2024-02-28T01:09:46;100288.20;;;
79488;BMP180;68949;53.176;18.088;2024-02-28T01:12:13;100284.60;;;
79488;BMP180;68949;53.176;18.088;2024-02-28T01:14:39;100280.20;;;
79488;BMP180;68949;53.176;18.088;2024-02-28T01:17:06;100281.40;;;
79488;BMP180;68949;53.176;18.088;2024-02-28T01:19:33;100277.20;;;
79488;BMP180;68949;53.176;18.088;2024-02-28T01:22:00;100276.60;;;
79488;BMP180;68949;53.176;18.088;2024-02-28T01:24:26;100271.60;;;
79488;BMP180;68949;53.176;18.088;2024-02-28T01:26:53;100266.20;;;
79488;BMP180;68949;53.176;18.088;2024-02-28T01:29:20;100269.00;;;
79488;BMP180;68949;53.176;18.088;2024-02-28T01:31:46;100266.40;;;
79488;BMP180;68949;53.176;18.088;2024-02-28T01:34:14;100267.60;;;
79488;BMP180;68949;53.176;18.088;2024-02-28T01:36:40;100273.00;;;
79488;BMP180;68949;53.176;18.088;2024-02-28T01:39:07;100281.00;;;
79488;BMP180;68949;53.176;18.088;2024-02-28T01:41:34;100282.60;;;
79488;BMP180;68949;53.176;18.088;2024-02-28T01:44:01;100283.60;;;
79488;BMP180;68949;53.176;18.088;2024-02-28T01:46:29;100289.20;;;
79488;BMP180;68949;53.176;18.088;2024-02-28T01:48:56;100287.20;;;
79488;BMP180;68949;53.176;18.088;2024-02-28T01:51:27;100295.20;;;
79488;BMP180;68949;53.176;18.088;2024-02-28T01:53:57;100294.60;;;
79488;BMP180;68949;53.176;18.088;2024-02-28T01:56:25;100297.80;;;
79488;BMP180;68949;53.176;18.088;2024-02-28T01:58:55;100298.80;;;
79488;BMP180;68949;53.176;18.088;2024-02-28T02:01:22;100298.20;;;
79488;BMP180;68949;53.176;18.088;2024-02-28T02:03:51;100295.00;;;
79488;BMP180;68949;53.176;18.088;2024-02-28T02:06:21;100295.00;;;
79488;BMP180;68949;53.176;18.088;2024-02-28T02:08:49;100292.40;;;
79488;BMP180;68949;53.176;18.088;2024-02-28T02:11:17;100297.60;;;
79488;BMP180;68949;53.176;18.088;2024-02-28T02:13:51;100298.20;;;
79488;BMP180;68949;53.176;18.088;2024-02-28T02:16:20;100301.80;;;
79488;BMP180;68949;53.176;18.088;2024-02-28T02:18:53;100300.20;;;
79488;BMP180;68949;53.176;18.088;2024-02-28T02:21:23;100302.40;;;
79488;BMP180;68949;53.176;18.088;2024-02-28T02:23:51;100301.80;;;
79488;BMP180;68949;53.176;18.088;2024-02-28T02:26:18;100295.20;;;
79488;BMP180;68949;53.176;18.088;2024-02-28T02:29:05;100293.40;;;
79488;BMP180;68949;53.176;18.088;2024-02-28T02:31:34;100289.60;;;
79488;BMP180;68949;53.176;18.088;2024-02-28T02:34:01;100289.00;;;
79488;BMP180;68949;53.176;18.088;2024-02-28T02:36:28;100285.20;;;
79488;BMP180;68949;53.176;18.088;2024-02-28T02:38:54;100286.60;;;
79488;BMP180;68949;53.176;18.088;2024-02-28T02:41:21;100288.20;;;
79488;BMP180;68949;53.176;18.088;2024-02-28T02:43:48;100292.00;;;
79488;BMP180;68949;53.176;18.088;2024-02-28T02:46:14;100289.60;;;
79488;BMP180;68949;53.176;18.088;2024-02-28T02:48:41;100291.60;;;
79488;BMP180;68949;53.176;18.088;2024-02-28T02:51:08;100291.00;;;
79488;BMP180;68949;53.176;18.088;2024-02-28T02:53:34;100284.20;;;
79488;BMP180;68949;53.176;18.088;2024-02-28T02:56:04;100280.60;;;
79488;BMP180;68949;53.176;18.088;2024-02-28T02:58:31;100279.60;;;
79488;BMP180;68949;53.176;18.088;2024-02-28T03:01:01;100278.00;;;
79488;BMP180;68949;53.176;18.088;2024-02-28T03:03:28;100272.80;;;
79488;BMP180;68949;53.176;18.088;2024-02-28T03:05:55;100270.00;;;
79488;BMP180;68949;53.176;18.088;2024-02-28T03:08:21;100267.20;;;
79488;BMP180;68949;53.176;18.088;2024-02-28T03:10:48;100265.40;;;
79488;BMP180;68949;53.176;18.088;2024-02-28T03:13:15;100276.60;;;
79488;BMP180;68949;53.176;18.088;2024-02-28T03:15:42;100272.40;;;
79488;BMP180;68949;53.176;18.088;2024-02-28T03:18:08;100281.80;;;
79488;BMP180;68949;53.176;18.088;2024-02-28T03:20:37;100278.20;;;
79488;BMP180;68949;53.176;18.088;2024-02-28T03:23:06;100281.40;;;
79488;BMP180;68949;53.176;18.088;2024-02-28T03:25:34;100283.40;;;
79488;BMP180;68949;53.176;18.088;2024-02-28T03:28:03;100275.20;;;
79488;BMP180;68949;53.176;18.088;2024-02-28T03:30:35;100271.60;;;
79488;BMP180;68949;53.176;18.088;2024-02-28T03:33:02;100275.20;;;
79488;BMP180;68949;53.176;18.088;2024-02-28T03:35:33;100281.40;;;
79488;BMP180;68949;53.176;18.088;2024-02-28T03:38:02;100277.60;;;
79488;BMP180;68949;53.176;18.088;2024-02-28T03:40:29;100279.20;;;
79488;BMP180;68949;53.176;18.088;2024-02-28T03:42:57;100275.00;;;
79488;BMP180;68949;53.176;18.088;2024-02-28T03:45:28;100275.20;;;
79488;BMP180;68949;53.176;18.088;2024-02-28T03:47:56;100274.80;;;
79488;BMP180;68949;53.176;18.088;2024-02-28T03:50:25;100275.20;;;
79488;BMP180;68949;53.176;18.088;2024-02-28T03:52:52;100272.20;;;
79488;BMP180;68949;53.176;18.088;2024-02-28T03:55:19;100271.80;;;
79488;BMP180;68949;53.176;18.088;2024-02-28T03:57:48;100273.80;;;
79488;BMP180;68949;53.176;18.088;2024-02-28T04:00:16;100275.40;;;
79488;BMP180;68949;53.176;18.088;2024-02-28T04:02:43;100275.00;;;
79488;BMP180;68949;53.176;18.088;2024-02-28T04:05:10;100275.60;;;
79488;BMP180;68949;53.176;18.088;2024-02-28T04:07:36;100280.40;;;
79488;BMP180;68949;53.176;18.088;2024-02-28T04:10:04;100279.80;;;
79488;BMP180;68949;53.176;18.088;2024-02-28T04:12:32;100282.80;;;
79488;BMP180;68949;53.176;18.088;2024-02-28T04:14:59;100285.20;;;
79488;BMP180;68949;53.176;18.088;2024-02-28T04:17:26;100283.40;;;
79488;BMP180;68949;53.176;18.088;2024-02-28T04:19:55;100278.60;;;
79488;BMP180;68949;53.176;18.088;2024-02-28T04:22:24;100276.80;;;
79488;BMP180;68949;53.176;18.088;2024-02-28T04:24:50;100276.00;;;
79488;BMP180;68949;53.176;18.088;2024-02-28T04:27:18;100279.60;;;
79488;BMP180;68949;53.176;18.088;2024-02-28T04:29:44;100276.80;;;
79488;BMP180;68949;53.176;18.088;2024-02-28T04:32:11;100276.00;;;
79488;BMP180;68949;53.176;18.088;2024-02-28T04:34:38;100272.60;;;
79488;BMP180;68949;53.176;18.088;2024-02-28T04:37:05;100281.60;;;
79488;BMP180;68949;53.176;18.088;2024-02-28T04:39:31;100279.40;;;
79488;BMP180;68949;53.176;18.088;2024-02-28T04:41:58;100286.00;;;
79488;BMP180;68949;53.176;18.088;2024-02-28T04:44:25;100286.20;;;
79488;BMP180;68949;53.176;18.088;2024-02-28T04:46:52;100284.40;;;
79488;BMP180;68949;53.176;18.088;2024-02-28T04:49:19;100285.00;;;
79488;BMP180;68949;53.176;18.088;2024-02-28T04:51:47;100285.60;;;
79488;BMP180;68949;53.176;18.088;2024-02-28T04:54:14;100285.60;;;
79488;BMP180;68949;53.176;18.088;2024-02-28T04:56:43;100288.80;;;
79488;BMP180;68949;53.176;18.088;2024-02-28T04:59:12;100292.20;;;
79488;BMP180;68949;53.176;18.088;2024-02-28T05:01:39;100291.40;;;
79488;BMP180;68949;53.176;18.088;2024-02-28T05:04:09;100290.60;;;
79488;BMP180;68949;53.176;18.088;2024-02-28T05:06:36;100286.20;;;
79488;BMP180;68949;53.176;18.088;2024-02-28T05:09:03;100290.00;;;
79488;BMP180;68949;53.176;18.088;2024-02-28T05:11:30;100292.00;;;
79488;BMP180;68949;53.176;18.088;2024-02-28T05:13:57;100290.60;;;
79488;BMP180;68949;53.176;18.088;2024-02-28T05:16:23;100294.00;;;
79488;BMP180;68949;53.176;18.088;2024-02-28T05:18:50;100294.20;;;
79488;BMP180;68949;53.176;18.088;2024-02-28T05:21:17;100295.80;;;
79488;BMP180;68949;53.176;18.088;2024-02-28T05:23:44;100297.20;;;
79488;BMP180;68949;53.176;18.088;2024-02-28T05:26:11;100294.60;;;
79488;BMP180;68949;53.176;18.088;2024-02-28T05:28:38;100295.00;;;
79488;BMP180;68949;53.176;18.088;2024-02-28T05:31:22;100296.20;;;
79488;BMP180;68949;53.176;18.088;2024-02-28T05:33:54;100292.40;;;
79488;BMP180;68949;53.176;18.088;2024-02-28T05:36:26;100297.00;;;
79488;BMP180;68949;53.176;18.088;2024-02-28T05:38:55;100303.40;;;
79488;BMP180;68949;53.176;18.088;2024-02-28T05:41:23;100307.80;;;
79488;BMP180;68949;53.176;18.088;2024-02-28T05:43:50;100302.40;;;
79488;BMP180;68949;53.176;18.088;2024-02-28T05:46:18;100302.40;;;
79488;BMP180;68949;53.176;18.088;2024-02-28T05:48:46;100305.60;;;
79488;BMP180;68949;53.176;18.088;2024-02-28T05:51:13;100306.00;;;
79488;BMP180;68949;53.176;18.088;2024-02-28T05:53:41;100308.60;;;
79488;BMP180;68949;53.176;18.088;2024-02-28T05:56:10;100313.20;;;
79488;BMP180;68949;53.176;18.088;2024-02-28T05:58:46;100315.40;;;
79488;BMP180;68949;53.176;18.088;2024-02-28T06:01:16;100323.00;;;
79488;BMP180;68949;53.176;18.088;2024-02-28T06:03:48;100326.20;;;
79488;BMP180;68949;53.176;18.088;2024-02-28T06:06:15;100330.00;;;
79488;BMP180;68949;53.176;18.088;2024-02-28T06:08:43;100336.40;;;
79488;BMP180;68949;53.176;18.088;2024-02-28T06:11:12;100334.80;;;
79488;BMP180;68949;53.176;18.088;2024-02-28T06:13:41;100332.60;;;
79488;BMP180;68949;53.176;18.088;2024-02-28T06:16:13;100338.80;;;
79488;BMP180;68949;53.176;18.088;2024-02-28T06:18:40;100338.60;;;
79488;BMP180;68949;53.176;18.088;2024-02-28T06:21:07;100341.60;;;
79488;BMP180;68949;53.176;18.088;2024-02-28T06:23:33;100344.00;;;
79488;BMP180;68949;53.176;18.088;2024-02-28T06:26:00;100349.80;;;
79488;BMP180;68949;53.176;18.088;2024-02-28T06:28:28;100352.20;;;
79488;BMP180;68949;53.176;18.088;2024-02-28T06:30:55;100347.60;;;
79488;BMP180;68949;53.176;18.088;2024-02-28T06:33:21;100347.40;;;
79488;BMP180;68949;53.176;18.088;2024-02-28T06:35:48;100348.20;;;
79488;BMP180;68949;53.176;18.088;2024-02-28T06:38:15;100346.60;;;
79488;BMP180;68949;53.176;18.088;2024-02-28T06:40:42;100351.40;;;
79488;BMP180;68949;53.176;18.088;2024-02-28T06:43:09;100355.60;;;
79488;BMP180;68949;53.176;18.088;2024-02-28T06:45:35;100357.60;;;
79488;BMP180;68949;53.176;18.088;2024-02-28T06:48:03;100358.80;;;
79488;BMP180;68949;53.176;18.088;2024-02-28T06:50:30;100363.40;;;
79488;BMP180;68949;53.176;18.088;2024-02-28T06:52:57;100363.00;;;
79488;BMP180;68949;53.176;18.088;2024-02-28T06:55:23;100370.80;;;
79488;BMP180;68949;53.176;18.088;2024-02-28T06:57:50;100364.60;;;
79488;BMP180;68949;53.176;18.088;2024-02-28T07:00:17;100364.20;;;
79488;BMP180;68949;53.176;18.088;2024-02-28T07:02:45;100369.80;;;
79488;BMP180;68949;53.176;18.088;2024-02-28T07:05:13;100371.40;;;
79488;BMP180;68949;53.176;18.088;2024-02-28T07:07:39;100376.80;;;
79488;BMP180;68949;53.176;18.088;2024-02-28T07:10:07;100379.00;;;
79488;BMP180;68949;53.176;18.088;2024-02-28T07:12:33;100383.80;;;
79488;BMP180;68949;53.176;18.088;2024-02-28T07:15:00;100383.00;;;
79488;BMP180;68949;53.176;18.088;2024-02-28T07:17:27;100380.00;;;
79488;BMP180;68949;53.176;18.088;2024-02-28T07:19:54;100382.40;;;
79488;BMP180;68949;53.176;18.088;2024-02-28T07:22:20;100391.40;;;
79488;BMP180;68949;53.176;18.088;2024-02-28T07:24:48;100385.40;;;
79488;BMP180;68949;53.176;18.088;2024-02-28T07:27:14;100390.40;;;
79488;BMP180;68949;53.176;18.088;2024-02-28T07:29:42;100390.60;;;
79488;BMP180;68949;53.176;18.088;2024-02-28T07:32:09;100392.00;;;
79488;BMP180;68949;53.176;18.088;2024-02-28T07:34:36;100396.80;;;
79488;BMP180;68949;53.176;18.088;2024-02-28T07:37:03;100401.80;;;
79488;BMP180;68949;53.176;18.088;2024-02-28T07:39:30;100404.40;;;
79488;BMP180;68949;53.176;18.088;2024-02-28T07:41:57;100406.40;;;
79488;BMP180;68949;53.176;18.088;2024-02-28T07:44:25;100409.40;;;
79488;BMP180;68949;53.176;18.088;2024-02-28T07:46:53;100412.60;;;
79488;BMP180;68949;53.176;18.088;2024-02-28T07:49:21;100416.00;;;
79488;BMP180;68949;53.176;18.088;2024-02-28T07:51:48;100412.60;;;
79488;BMP180;68949;53.176;18.088;2024-02-28T07:54:14;100409.60;;;
79488;BMP180;68949;53.176;18.088;2024-02-28T07:56:44;100412.20;;;
79488;BMP180;68949;53.176;18.088;2024-02-28T07:59:13;100410.80;;;
79488;BMP180;68949;53.176;18.088;2024-02-28T08:01:40;100410.60;;;
79488;BMP180;68949;53.176;18.088;2024-02-28T08:04:07;100412.20;;;
79488;BMP180;68949;53.176;18.088;2024-02-28T08:06:34;100409.80;;;
79488;BMP180;68949;53.176;18.088;2024-02-28T08:09:01;100407.80;;;
79488;BMP180;68949;53.176;18.088;2024-02-28T08:11:30;100409.40;;;
79488;BMP180;68949;53.176;18.088;2024-02-28T08:13:59;100405.80;;;
79488;BMP180;68949;53.176;18.088;2024-02-28T08:16:27;100403.60;;;
79488;BMP180;68949;53.176;18.088;2024-02-28T08:18:54;100402.60;;;
79488;BMP180;68949;53.176;18.088;2024-02-28T08:21:21;100401.80;;;
79488;BMP180;68949;53.176;18.088;2024-02-28T08:23:49;100406.40;;;
79488;BMP180;68949;53.176;18.088;2024-02-28T08:26:16;100405.40;;;
79488;BMP180;68949;53.176;18.088;2024-02-28T08:28:43;100404.60;;;
79488;BMP180;68949;53.176;18.088;2024-02-28T08:31:09;100403.20;;;
79488;BMP180;68949;53.176;18.088;2024-02-28T08:33:36;100397.00;;;
79488;BMP180;68949;53.176;18.088;2024-02-28T08:36:05;100400.40;;;
79488;BMP180;68949;53.176;18.088;2024-02-28T08:38:32;100398.40;;;
79488;BMP180;68949;53.176;18.088;2024-02-28T08:41:01;100406.80;;;
79488;BMP180;68949;53.176;18.088;2024-02-28T08:43:28;100414.00;;;
79488;BMP180;68949;53.176;18.088;2024-02-28T08:45:55;100419.20;;;
79488;BMP180;68949;53.176;18.088;2024-02-28T08:48:21;100416.60;;;
79488;BMP180;68949;53.176;18.088;2024-02-28T08:50:49;100413.60;;;
79488;BMP180;68949;53.176;18.088;2024-02-28T08:53:16;100413.00;;;
79488;BMP180;68949;53.176;18.088;2024-02-28T08:55:43;100414.60;;;
79488;BMP180;68949;53.176;18.088;2024-02-28T08:58:09;100416.80;;;
79488;BMP180;68949;53.176;18.088;2024-02-28T09:00:37;100421.20;;;
79488;BMP180;68949;53.176;18.088;2024-02-28T09:03:04;100429.20;;;
79488;BMP180;68949;53.176;18.088;2024-02-28T09:05:31;100427.80;;;
79488;BMP180;68949;53.176;18.088;2024-02-28T09:07:59;100418.80;;;
79488;BMP180;68949;53.176;18.088;2024-02-28T09:10:26;100417.40;;;
79488;BMP180;68949;53.176;18.088;2024-02-28T09:12:53;100430.40;;;
79488;BMP180;68949;53.176;18.088;2024-02-28T09:15:19;100434.80;;;
79488;BMP180;68949;53.176;18.088;2024-02-28T09:17:46;100428.00;;;
79488;BMP180;68949;53.176;18.088;2024-02-28T09:20:13;100433.40;;;
79488;BMP180;68949;53.176;18.088;2024-02-28T09:22:40;100436.80;;;
79488;BMP180;68949;53.176;18.088;2024-02-28T09:25:07;100443.40;;;
79488;BMP180;68949;53.176;18.088;2024-02-28T09:27:36;100441.40;;;
79488;BMP180;68949;53.176;18.088;2024-02-28T09:30:03;100441.80;;;
79488;BMP180;68949;53.176;18.088;2024-02-28T09:32:31;100440.00;;;
79488;BMP180;68949;53.176;18.088;2024-02-28T09:34:57;100436.80;;;
79488;BMP180;68949;53.176;18.088;2024-02-28T09:37:24;100440.40;;;
79488;BMP180;68949;53.176;18.088;2024-02-28T09:39:51;100440.40;;;
79488;BMP180;68949;53.176;18.088;2024-02-28T09:42:19;100441.60;;;
79488;BMP180;68949;53.176;18.088;2024-02-28T09:44:46;100444.40;;;
79488;BMP180;68949;53.176;18.088;2024-02-28T09:47:13;100449.00;;;
79488;BMP180;68949;53.176;18.088;2024-02-28T09:49:42;100443.60;;;
79488;BMP180;68949;53.176;18.088;2024-02-28T09:52:09;100444.20;;;
79488;BMP180;68949;53.176;18.088;2024-02-28T09:54:36;100443.20;;;
79488;BMP180;68949;53.176;18.088;2024-02-28T09:57:04;100451.40;;;
79488;BMP180;68949;53.176;18.088;2024-02-28T09:59:32;100453.40;;;
79488;BMP180;68949;53.176;18.088;2024-02-28T10:02:00;100458.80;;;
79488;BMP180;68949;53.176;18.088;2024-02-28T10:04:27;100456.00;;;
79488;BMP180;68949;53.176;18.088;2024-02-28T10:06:54;100462.40;;;
79488;BMP180;68949;53.176;18.088;2024-02-28T10:09:21;100467.00;;;
79488;BMP180;68949;53.176;18.088;2024-02-28T10:11:47;100469.40;;;
79488;BMP180;68949;53.176;18.088;2024-02-28T10:14:18;100470.40;;;
79488;BMP180;68949;53.176;18.088;2024-02-28T10:16:46;100479.20;;;
79488;BMP180;68949;53.176;18.088;2024-02-28T10:19:12;100480.60;;;
79488;BMP180;68949;53.176;18.088;2024-02-28T10:21:40;100482.40;;;
79488;BMP180;68949;53.176;18.088;2024-02-28T10:24:07;100482.40;;;
79488;BMP180;68949;53.176;18.088;2024-02-28T10:26:43;100483.20;;;
79488;BMP180;68949;53.176;18.088;2024-02-28T10:29:10;100478.60;;;
79488;BMP180;68949;53.176;18.088;2024-02-28T10:31:37;100486.40;;;
79488;BMP180;68949;53.176;18.088;2024-02-28T10:34:04;100498.00;;;
79488;BMP180;68949;53.176;18.088;2024-02-28T10:36:32;100489.60;;;
79488;BMP180;68949;53.176;18.088;2024-02-28T10:39:00;100489.40;;;
79488;BMP180;68949;53.176;18.088;2024-02-28T10:41:28;100493.00;;;
79488;BMP180;68949;53.176;18.088;2024-02-28T10:43:55;100494.00;;;
79488;BMP180;68949;53.176;18.088;2024-02-28T10:46:22;100497.80;;;
79488;BMP180;68949;53.176;18.088;2024-02-28T10:48:51;100496.60;;;
79488;BMP180;68949;53.176;18.088;2024-02-28T10:51:24;100503.20;;;
79488;BMP180;68949;53.176;18.088;2024-02-28T10:54:09;100496.40;;;
79488;BMP180;68949;53.176;18.088;2024-02-28T10:56:41;100496.20;;;
79488;BMP180;68949;53.176;18.088;2024-02-28T10:59:10;100505.00;;;
79488;BMP180;68949;53.176;18.088;2024-02-28T11:01:41;100504.20;;;
79488;BMP180;68949;53.176;18.088;2024-02-28T11:04:16;100495.80;;;
79488;BMP180;68949;53.176;18.088;2024-02-28T11:06:53;100499.40;;;
79488;BMP180;68949;53.176;18.088;2024-02-28T11:09:22;100490.60;;;
79488;BMP180;68949;53.176;18.088;2024-02-28T11:11:58;100494.40;;;
79488;BMP180;68949;53.176;18.088;2024-02-28T11:14:25;100497.40;;;
79488;BMP180;68949;53.176;18.088;2024-02-28T11:19:30;100498.80;;;
79488;BMP180;68949;53.176;18.088;2024-02-28T11:22:00;100496.60;;;
79488;BMP180;68949;53.176;18.088;2024-02-28T11:24:33;100495.60;;;
79488;BMP180;68949;53.176;18.088;2024-02-28T11:27:01;100495.00;;;
79488;BMP180;68949;53.176;18.088;2024-02-28T11:29:29;100496.00;;;
79488;BMP180;68949;53.176;18.088;2024-02-28T11:31:56;100498.80;;;
79488;BMP180;68949;53.176;18.088;2024-02-28T11:34:23;100492.20;;;
79488;BMP180;68949;53.176;18.088;2024-02-28T11:36:51;100492.60;;;
79488;BMP180;68949;53.176;18.088;2024-02-28T11:39:19;100493.60;;;
79488;BMP180;68949;53.176;18.088;2024-02-28T11:41:47;100489.20;;;
79488;BMP180;68949;53.176;18.088;2024-02-28T11:44:16;100496.60;;;
79488;BMP180;68949;53.176;18.088;2024-02-28T11:46:48;100490.80;;;
79488;BMP180;68949;53.176;18.088;2024-02-28T11:49:16;100496.20;;;
79488;BMP180;68949;53.176;18.088;2024-02-28T11:51:43;100496.40;;;
79488;BMP180;68949;53.176;18.088;2024-02-28T11:54:11;100498.60;;;
79488;BMP180;68949;53.176;18.088;2024-02-28T11:56:39;100502.80;;;
79488;BMP180;68949;53.176;18.088;2024-02-28T11:59:06;100505.60;;;
79488;BMP180;68949;53.176;18.088;2024-02-28T12:01:41;100511.80;;;
79488;BMP180;68949;53.176;18.088;2024-02-28T12:04:08;100509.00;;;
79488;BMP180;68949;53.176;18.088;2024-02-28T12:06:37;100507.00;;;
79488;BMP180;68949;53.176;18.088;2024-02-28T12:09:09;100510.60;;;
79488;BMP180;68949;53.176;18.088;2024-02-28T12:11:37;100502.80;;;
79488;BMP180;68949;53.176;18.088;2024-02-28T12:14:06;100504.80;;;
79488;BMP180;68949;53.176;18.088;2024-02-28T12:16:41;100505.60;;;
79488;BMP180;68949;53.176;18.088;2024-02-28T12:19:11;100508.60;;;
79488;BMP180;68949;53.176;18.088;2024-02-28T12:21:40;100512.00;;;
79488;BMP180;68949;53.176;18.088;2024-02-28T12:24:08;100517.00;;;
79488;BMP180;68949;53.176;18.088;2024-02-28T12:26:40;100517.40;;;
79488;BMP180;68949;53.176;18.088;2024-02-28T12:29:07;100513.20;;;
79488;BMP180;68949;53.176;18.088;2024-02-28T12:31:37;100513.80;;;
79488;BMP180;68949;53.176;18.088;2024-02-28T12:34:04;100513.80;;;
79488;BMP180;68949;53.176;18.088;2024-02-28T12:36:31;100515.20;;;
79488;BMP180;68949;53.176;18.088;2024-02-28T12:38:59;100519.60;;;
79488;BMP180;68949;53.176;18.088;2024-02-28T12:41:27;100521.20;;;
79488;BMP180;68949;53.176;18.088;2024-02-28T12:43:54;100525.40;;;
79488;BMP180;68949;53.176;18.088;2024-02-28T12:46:21;100523.00;;;
79488;BMP180;68949;53.176;18.088;2024-02-28T12:48:48;100524.60;;;
79488;BMP180;68949;53.176;18.088;2024-02-28T12:51:40;100525.20;;;
79488;BMP180;68949;53.176;18.088;2024-02-28T12:54:08;100521.80;;;
79488;BMP180;68949;53.176;18.088;2024-02-28T12:56:37;100527.40;;;
79488;BMP180;68949;53.176;18.088;2024-02-28T12:59:04;100517.40;;;
79488;BMP180;68949;53.176;18.088;2024-02-28T13:01:32;100518.20;;;
79488;BMP180;68949;53.176;18.088;2024-02-28T13:03:59;100515.40;;;
79488;BMP180;68949;53.176;18.088;2024-02-28T13:06:26;100519.80;;;
79488;BMP180;68949;53.176;18.088;2024-02-28T13:08:54;100514.40;;;
79488;BMP180;68949;53.176;18.088;2024-02-28T13:11:23;100510.80;;;
79488;BMP180;68949;53.176;18.088;2024-02-28T13:13:52;100513.00;;;
79488;BMP180;68949;53.176;18.088;2024-02-28T13:16:19;100515.20;;;
79488;BMP180;68949;53.176;18.088;2024-02-28T13:18:48;100518.60;;;
79488;BMP180;68949;53.176;18.088;2024-02-28T13:21:15;100519.40;;;
79488;BMP180;68949;53.176;18.088;2024-02-28T13:23:41;100515.60;;;
79488;BMP180;68949;53.176;18.088;2024-02-28T13:26:08;100516.00;;;
79488;BMP180;68949;53.176;18.088;2024-02-28T13:28:35;100519.60;;;
79488;BMP180;68949;53.176;18.088;2024-02-28T13:31:03;100523.80;;;
79488;BMP180;68949;53.176;18.088;2024-02-28T13:33:33;100521.60;;;
79488;BMP180;68949;53.176;18.088;2024-02-28T13:35:59;100527.80;;;
79488;BMP180;68949;53.176;18.088;2024-02-28T13:38:26;100528.80;;;
79488;BMP180;68949;53.176;18.088;2024-02-28T13:40:53;100528.00;;;
79488;BMP180;68949;53.176;18.088;2024-02-28T13:43:20;100530.60;;;
79488;BMP180;68949;53.176;18.088;2024-02-28T13:45:49;100533.00;;;
79488;BMP180;68949;53.176;18.088;2024-02-28T13:48:21;100529.60;;;
79488;BMP180;68949;53.176;18.088;2024-02-28T13:50:51;100529.40;;;
79488;BMP180;68949;53.176;18.088;2024-02-28T13:53:18;100534.80;;;
79488;BMP180;68949;53.176;18.088;2024-02-28T13:55:45;100530.80;;;
79488;BMP180;68949;53.176;18.088;2024-02-28T13:58:13;100529.60;;;
79488;BMP180;68949;53.176;18.088;2024-02-28T14:00:40;100528.40;;;
79488;BMP180;68949;53.176;18.088;2024-02-28T14:03:08;100532.20;;;
79488;BMP180;68949;53.176;18.088;2024-02-28T14:05:35;100535.80;;;
79488;BMP180;68949;53.176;18.088;2024-02-28T14:08:03;100537.60;;;
79488;BMP180;68949;53.176;18.088;2024-02-28T14:10:30;100536.00;;;
79488;BMP180;68949;53.176;18.088;2024-02-28T14:12:57;100540.40;;;
79488;BMP180;68949;53.176;18.088;2024-02-28T14:15:25;100538.20;;;
79488;BMP180;68949;53.176;18.088;2024-02-28T14:17:52;100542.40;;;
79488;BMP180;68949;53.176;18.088;2024-02-28T14:20:18;100545.40;;;
79488;BMP180;68949;53.176;18.088;2024-02-28T14:22:45;100551.20;;;
79488;BMP180;68949;53.176;18.088;2024-02-28T14:25:14;100558.40;;;
79488;BMP180;68949;53.176;18.088;2024-02-28T14:27:43;100558.80;;;
79488;BMP180;68949;53.176;18.088;2024-02-28T14:30:12;100560.20;;;
79488;BMP180;68949;53.176;18.088;2024-02-28T14:32:42;100559.80;;;
79488;BMP180;68949;53.176;18.088;2024-02-28T14:35:10;100562.00;;;
79488;BMP180;68949;53.176;18.088;2024-02-28T14:37:38;100566.20;;;
79488;BMP180;68949;53.176;18.088;2024-02-28T14:40:09;100567.60;;;
79488;BMP180;68949;53.176;18.088;2024-02-28T14:42:43;100573.40;;;
79488;BMP180;68949;53.176;18.088;2024-02-28T14:45:13;100571.20;;;
79488;BMP180;68949;53.176;18.088;2024-02-28T14:47:43;100576.40;;;
79488;BMP180;68949;53.176;18.088;2024-02-28T14:50:11;100583.00;;;
79488;BMP180;68949;53.176;18.088;2024-02-28T14:52:40;100587.40;;;
79488;BMP180;68949;53.176;18.088;2024-02-28T14:55:08;100594.80;;;